Time;durP1;ratioP1;P1;durP2;ratioP2;P2;SDS_P1;SDS_P2;PMS_P1;PMS_P2;Temp;Humidity;BMP_temperature;BMP_pressure;BME280_temperature;BME280_humidity;BME280_pressure;Samples;Min_cycle;Max_cycle;Signal;HPM_P1;HPM_P2
2023/12/01 00:00:36;;;;;;;13.40;11.17;;;-6.80;99.90;;;;;;5061874;28;21091;-53
2023/12/01 00:03:03;;;;;;;12.03;10.50;;;-6.80;99.90;;;;;;5051498;28;20872;-55
2023/12/01 00:05:29;;;;;;;10.93;9.80;;;-6.80;99.90;;;;;;5060445;28;20472;-53
2023/12/01 00:07:56;;;;;;;15.40;12.40;;;-6.90;99.90;;;;;;5057879;28;20508;-53
2023/12/01 00:10:22;;;;;;;14.60;11.37;;;-6.90;99.90;;;;;;5063823;28;20499;-53
2023/12/01 00:12:49;;;;;;;23.00;17.00;;;-7.00;99.90;;;;;;5060592;28;20512;-53
2023/12/01 00:15:16;;;;;;;11.47;9.30;;;-7.00;99.90;;;;;;5061187;28;20465;-53
2023/12/01 00:17:43;;;;;;;11.73;10.40;;;-7.10;99.90;;;;;;5064766;28;20504;-53
2023/12/01 00:20:11;;;;;;;15.47;12.30;;;-7.10;99.90;;;;;;5057665;28;20502;-54
2023/12/01 00:22:37;;;;;;;14.83;12.73;;;-7.20;99.90;;;;;;5053042;28;20959;-55
2023/12/01 00:25:05;;;;;;;13.80;11.43;;;-7.20;99.90;;;;;;5055194;28;20470;-54
2023/12/01 00:27:31;;;;;;;27.93;16.50;;;-7.30;99.90;;;;;;5061662;28;20505;-53
2023/12/01 00:29:58;;;;;;;39.00;27.87;;;-7.30;99.90;;;;;;5060150;28;20518;-53
2023/12/01 00:32:24;;;;;;;30.67;22.90;;;-7.30;99.90;;;;;;5050716;28;20513;-54
2023/12/01 00:34:52;;;;;;;27.63;20.70;;;-7.30;99.90;;;;;;5052173;28;20951;-53
2023/12/01 00:37:19;;;;;;;25.10;19.93;;;-7.40;99.90;;;;;;5054347;28;20930;-53
2023/12/01 00:39:46;;;;;;;25.27;19.83;;;-7.40;99.90;;;;;;5058739;28;20504;-53
2023/12/01 00:42:13;;;;;;;20.30;16.67;;;-7.40;99.90;;;;;;5050543;28;20468;-53
2023/12/01 00:44:40;;;;;;;15.83;13.30;;;-7.50;99.90;;;;;;5057138;28;20514;-53
2023/12/01 00:47:06;;;;;;;15.10;10.77;;;-7.60;99.90;;;;;;5054090;28;20539;-53
2023/12/01 00:49:33;;;;;;;11.47;10.27;;;-7.60;99.90;;;;;;5063479;28;20995;-53
2023/12/01 00:52:01;;;;;;;15.70;11.10;;;-7.70;99.90;;;;;;5059122;28;20516;-53
2023/12/01 00:54:27;;;;;;;14.00;11.70;;;-7.70;99.90;;;;;;5057061;28;20579;-55
2023/12/01 00:56:54;;;;;;;11.83;9.63;;;-7.70;99.90;;;;;;5061229;28;20493;-53
2023/12/01 00:59:21;;;;;;;17.27;9.90;;;-7.70;99.90;;;;;;5051226;28;20527;-53
2023/12/01 01:01:48;;;;;;;11.33;8.80;;;-7.70;99.90;;;;;;5058263;28;20484;-52
2023/12/01 01:04:14;;;;;;;10.50;8.87;;;-7.80;99.90;;;;;;5058658;28;20991;-53
2023/12/01 01:06:41;;;;;;;11.10;9.10;;;-7.70;99.90;;;;;;5057675;28;21463;-56
2023/12/01 01:09:09;;;;;;;10.57;9.40;;;-7.80;99.90;;;;;;5058324;28;20480;-56
2023/12/01 01:11:36;;;;;;;10.70;8.87;;;-7.90;99.90;;;;;;5050816;28;20461;-56
2023/12/01 01:14:02;;;;;;;11.60;9.20;;;-7.90;99.90;;;;;;5060208;28;20485;-56
2023/12/01 01:16:29;;;;;;;11.50;9.53;;;-7.90;99.90;;;;;;5059246;28;20518;-56
2023/12/01 01:18:55;;;;;;;11.07;9.63;;;-7.80;99.90;;;;;;5057225;28;20525;-56
2023/12/01 01:21:23;;;;;;;10.70;9.50;;;-7.80;99.90;;;;;;5057044;28;20489;-56
2023/12/01 01:23:49;;;;;;;11.70;9.70;;;-7.90;99.90;;;;;;5055741;28;20478;-54
2023/12/01 01:26:17;;;;;;;14.30;10.10;;;-8.00;99.90;;;;;;5055306;28;20457;-55
2023/12/01 01:28:44;;;;;;;10.60;9.50;;;-8.00;99.90;;;;;;5058030;28;20466;-55
2023/12/01 01:31:11;;;;;;;11.13;10.03;;;-8.10;99.90;;;;;;5055550;28;20485;-55
2023/12/01 01:33:37;;;;;;;9.90;8.90;;;-8.10;99.90;;;;;;5058147;28;20560;-56
2023/12/01 01:36:04;;;;;;;9.83;7.97;;;-8.20;99.90;;;;;;5052958;28;20492;-54
2023/12/01 01:38:31;;;;;;;9.20;8.30;;;-8.20;99.90;;;;;;5055272;28;21066;-55
2023/12/01 01:40:58;;;;;;;9.40;8.20;;;-8.20;99.90;;;;;;5059432;28;20462;-55
2023/12/01 01:43:26;;;;;;;10.50;8.60;;;-8.30;99.90;;;;;;5059484;28;20458;-54
2023/12/01 01:46:02;;;;;;;10.27;7.97;;;-8.40;99.90;;;;;;5052882;28;20476;-55
2023/12/01 01:48:29;;;;;;;9.70;8.33;;;-8.30;99.90;;;;;;5062796;28;20903;-56
2023/12/01 01:50:55;;;;;;;11.17;8.80;;;-8.40;99.90;;;;;;5054373;28;20489;-56
2023/12/01 01:53:23;;;;;;;9.23;7.80;;;-8.40;99.90;;;;;;5047608;28;20509;-55
2023/12/01 01:55:49;;;;;;;10.57;8.10;;;-8.40;99.90;;;;;;5052057;28;20459;-56
2023/12/01 01:58:16;;;;;;;9.30;8.13;;;-8.50;99.90;;;;;;5052645;28;20513;-56
2023/12/01 02:00:49;;;;;;;9.70;8.70;;;-8.50;99.90;;;;;;5058421;28;20496;-56
2023/12/01 02:03:16;;;;;;;8.97;8.07;;;-8.50;99.90;;;;;;5057978;28;20956;-55
2023/12/01 02:05:42;;;;;;;8.30;7.40;;;-8.50;99.90;;;;;;5051901;28;20963;-55
2023/12/01 02:08:24;;;;;;;9.67;7.90;;;-8.50;99.90;;;;;;5049703;28;20469;-55
2023/12/01 02:10:51;;;;;;;8.27;7.47;;;-8.50;99.90;;;;;;5050106;28;20798;-55
2023/12/01 02:13:18;;;;;;;12.40;8.73;;;-8.50;99.90;;;;;;5048732;28;20478;-56
2023/12/01 02:15:46;;;;;;;9.17;7.70;;;-8.50;99.90;;;;;;5052045;28;20460;-56
2023/12/01 02:18:20;;;;;;;11.13;8.20;;;-8.50;99.90;;;;;;5052818;28;20482;-56
2023/12/01 02:20:47;;;;;;;34.10;15.87;;;-8.60;99.90;;;;;;5051638;28;20920;-56
2023/12/01 02:23:15;;;;;;;23.17;13.83;;;-8.50;99.90;;;;;;5054062;28;20462;-56
2023/12/01 02:25:41;;;;;;;21.33;12.53;;;-8.50;99.90;;;;;;5058107;28;20457;-57
2023/12/01 02:28:08;;;;;;;17.63;11.73;;;-8.50;99.90;;;;;;5050687;28;21019;-55
2023/12/01 02:30:35;;;;;;;13.20;10.00;;;-8.50;99.90;;;;;;5058967;28;21005;-55
2023/12/01 02:33:01;;;;;;;13.30;7.60;;;-8.50;99.90;;;;;;5052550;28;20478;-55
2023/12/01 02:35:29;;;;;;;12.40;8.80;;;-8.50;99.90;;;;;;5050572;28;20534;-56
2023/12/01 02:37:56;;;;;;;9.80;7.70;;;-8.50;99.90;;;;;;5054765;28;20493;-55
2023/12/01 02:40:24;;;;;;;7.33;6.63;;;-8.60;99.90;;;;;;5052146;28;20519;-55
2023/12/01 02:42:53;;;;;;;8.40;7.60;;;-8.60;99.90;;;;;;5049967;28;20450;-56
2023/12/01 02:45:20;;;;;;;6.23;5.73;;;-8.60;99.90;;;;;;5053105;28;20453;-55
2023/12/01 02:47:49;;;;;;;8.67;7.80;;;-8.50;99.90;;;;;;5051414;28;20519;-56
2023/12/01 02:50:16;;;;;;;8.63;7.73;;;-8.60;99.90;;;;;;5057094;28;20454;-55
2023/12/01 02:52:43;;;;;;;9.30;8.00;;;-8.60;99.90;;;;;;5058178;28;20453;-55
2023/12/01 02:55:10;;;;;;;8.67;7.87;;;-8.50;99.90;;;;;;5052240;28;20495;-57
2023/12/01 02:57:39;;;;;;;8.83;7.93;;;-8.60;99.90;;;;;;5057763;28;20477;-56
2023/12/01 03:00:08;;;;;;;8.00;6.60;;;-8.70;99.90;;;;;;5057757;28;20461;-55
2023/12/01 03:02:35;;;;;;;8.60;6.90;;;-8.60;99.90;;;;;;5058423;28;20472;-56
2023/12/01 03:05:01;;;;;;;9.57;7.20;;;-8.70;99.90;;;;;;5048003;28;20466;-55
2023/12/01 03:07:28;;;;;;;7.87;7.13;;;-8.70;99.90;;;;;;5056286;28;20481;-55
2023/12/01 03:09:55;;;;;;;8.13;7.43;;;-8.70;99.90;;;;;;5061062;28;20518;-55
2023/12/01 03:12:21;;;;;;;7.23;6.63;;;-8.70;99.90;;;;;;5063079;28;21018;-55
2023/12/01 03:14:49;;;;;;;9.83;8.40;;;-8.70;99.90;;;;;;5061050;28;20982;-56
2023/12/01 03:17:16;;;;;;;7.60;6.90;;;-8.80;99.90;;;;;;5061921;28;20535;-55
2023/12/01 03:19:46;;;;;;;8.57;7.03;;;-8.80;99.90;;;;;;5057468;28;20468;-55
2023/12/01 03:22:13;;;;;;;7.90;7.10;;;-8.80;99.90;;;;;;5055682;28;20791;-55
2023/12/01 03:24:41;;;;;;;7.63;6.80;;;-8.80;99.90;;;;;;5057532;28;21448;-56
2023/12/01 03:27:08;;;;;;;7.73;6.97;;;-8.90;99.90;;;;;;5061769;28;20453;-56
2023/12/01 03:29:35;;;;;;;7.87;7.17;;;-8.90;99.90;;;;;;5059432;28;20475;-56
2023/12/01 03:32:04;;;;;;;6.50;5.80;;;-8.90;99.90;;;;;;5063887;28;20446;-55
2023/12/01 03:34:31;;;;;;;11.47;7.30;;;-9.00;99.90;;;;;;5054072;28;20481;-55
2023/12/01 03:36:57;;;;;;;9.00;7.43;;;-9.00;99.90;;;;;;5063008;28;20518;-55
2023/12/01 03:39:25;;;;;;;6.83;6.20;;;-8.90;99.90;;;;;;5066888;28;20480;-55
2023/12/01 03:41:52;;;;;;;8.30;7.40;;;-9.00;99.90;;;;;;5059018;28;20468;-55
2023/12/01 03:44:19;;;;;;;7.33;6.73;;;-8.90;99.90;;;;;;5060407;28;20457;-55
2023/12/01 03:46:45;;;;;;;7.70;7.10;;;-9.00;99.90;;;;;;5062042;28;20506;-56
2023/12/01 03:49:13;;;;;;;7.10;6.50;;;-9.00;99.90;;;;;;5062139;28;20486;-55
2023/12/01 03:51:40;;;;;;;9.00;8.10;;;-9.00;99.90;;;;;;5061856;28;20462;-55
2023/12/01 03:54:07;;;;;;;8.43;7.27;;;-8.90;99.90;;;;;;5057707;28;20480;-55
2023/12/01 03:56:36;;;;;;;8.30;7.53;;;-8.90;99.90;;;;;;5059450;28;20457;-55
2023/12/01 03:59:09;;;;;;;8.00;7.30;;;-8.90;99.90;;;;;;5053916;28;20891;-56
2023/12/01 04:01:36;;;;;;;8.97;7.83;;;-9.00;99.90;;;;;;5058977;28;20950;-55
2023/12/01 04:04:04;;;;;;;8.40;7.60;;;-8.90;99.90;;;;;;5058098;28;20994;-55
2023/12/01 04:06:33;;;;;;;8.13;7.03;;;-8.90;99.90;;;;;;5062471;28;21064;-56
2023/12/01 04:09:05;;;;;;;8.90;7.50;;;-8.80;99.90;;;;;;5057965;28;20481;-54
2023/12/01 04:11:32;;;;;;;10.00;7.50;;;-8.90;99.90;;;;;;5064186;28;20457;-56
2023/12/01 04:13:58;;;;;;;10.50;8.50;;;-8.90;99.90;;;;;;5061556;28;20477;-55
2023/12/01 04:16:26;;;;;;;8.23;7.47;;;-8.80;99.90;;;;;;5059034;28;20469;-55
2023/12/01 04:18:52;;;;;;;8.77;7.87;;;-8.90;99.90;;;;;;5053788;28;20496;-56
2023/12/01 04:21:19;;;;;;;8.40;7.47;;;-8.80;99.90;;;;;;5054018;28;20458;-55
2023/12/01 04:23:47;;;;;;;8.73;7.90;;;-8.90;99.90;;;;;;5065605;28;20507;-56
2023/12/01 04:26:14;;;;;;;9.27;7.90;;;-8.90;99.90;;;;;;5055837;28;20490;-56
2023/12/01 04:28:40;;;;;;;8.17;7.37;;;-8.90;99.90;;;;;;5062034;28;20472;-55
2023/12/01 04:31:07;;;;;;;8.20;7.43;;;-8.90;99.90;;;;;;5056289;28;20457;-55
2023/12/01 04:33:34;;;;;;;10.27;8.00;;;-8.90;99.90;;;;;;5055585;28;21014;-55
2023/12/01 04:36:06;;;;;;;8.83;7.90;;;-8.90;99.90;;;;;;5052548;28;20543;-55
2023/12/01 04:38:33;;;;;;;8.37;7.53;;;-8.90;99.90;;;;;;5060424;28;20482;-55
2023/12/01 04:41:01;;;;;;;9.50;8.47;;;-8.80;99.90;;;;;;5058639;28;20461;-55
2023/12/01 04:43:28;;;;;;;10.33;9.27;;;-8.70;99.90;;;;;;5063506;28;20812;-55
2023/12/01 04:45:55;;;;;;;8.90;7.93;;;-8.80;99.90;;;;;;5059710;28;20460;-55
2023/12/01 04:48:22;;;;;;;9.10;8.20;;;-8.70;99.90;;;;;;5059542;28;20482;-56
2023/12/01 04:50:49;;;;;;;8.60;7.70;;;-8.60;99.90;;;;;;5056297;28;20461;-55
2023/12/01 04:53:15;;;;;;;9.77;8.77;;;-8.60;99.90;;;;;;5048054;28;20477;-56
2023/12/01 04:55:42;;;;;;;8.30;7.53;;;-8.60;99.90;;;;;;5053976;28;20955;-56
2023/12/01 04:58:10;;;;;;;8.13;7.33;;;-8.70;99.90;;;;;;5054714;28;20488;-56
2023/12/01 05:00:36;;;;;;;8.70;7.70;;;-8.80;99.90;;;;;;5050710;28;20464;-56
2023/12/01 05:03:05;;;;;;;9.97;8.97;;;-8.80;99.90;;;;;;5051814;28;20492;-55
2023/12/01 05:05:33;;;;;;;8.37;7.10;;;-8.80;99.90;;;;;;5055823;28;20486;-56
2023/12/01 05:08:01;;;;;;;7.40;6.70;;;-8.80;99.90;;;;;;5055050;28;21196;-56
2023/12/01 05:10:29;;;;;;;8.40;7.50;;;-8.80;99.90;;;;;;5052010;28;20476;-55
2023/12/01 05:12:57;;;;;;;7.30;6.70;;;-8.80;99.90;;;;;;5059089;28;20523;-55
2023/12/01 05:15:26;;;;;;;7.33;6.77;;;-8.90;96.20;;;;;;5056768;28;20544;-56
2023/12/01 05:17:54;;;;;;;7.73;6.97;;;-8.80;99.90;;;;;;5056035;28;20489;-56
2023/12/01 05:20:23;;;;;;;7.20;6.50;;;-8.90;99.90;;;;;;5055232;28;20458;-56
2023/12/01 05:22:51;;;;;;;7.27;6.60;;;-8.90;99.90;;;;;;5057820;28;20465;-56
2023/12/01 05:25:19;;;;;;;8.10;7.30;;;-8.80;99.90;;;;;;5057293;28;20461;-56
2023/12/01 05:27:46;;;;;;;7.23;6.43;;;-8.90;99.90;;;;;;5049485;28;20489;-55
2023/12/01 05:30:15;;;;;;;7.23;6.53;;;-8.90;99.90;;;;;;5055180;28;20932;-55
2023/12/01 05:32:45;;;;;;;7.20;6.50;;;-8.80;99.90;;;;;;5048911;28;20513;-55
2023/12/01 05:35:12;;;;;;;5.93;5.47;;;-8.80;99.90;;;;;;5056734;28;20900;-55
2023/12/01 05:37:40;;;;;;;11.57;7.87;;;-8.90;99.90;;;;;;5053321;28;20485;-55
2023/12/01 05:40:09;;;;;;;8.53;7.00;;;-8.90;99.90;;;;;;5053864;28;20457;-55
2023/12/01 05:42:36;;;;;;;8.10;7.40;;;-9.00;99.90;;;;;;5061990;28;20457;-56
2023/12/01 05:45:02;;;;;;;8.27;7.47;;;-8.90;99.90;;;;;;5050788;28;20464;-56
2023/12/01 05:47:29;;;;;;;7.20;6.50;;;-8.90;99.90;;;;;;5052785;28;20575;-56
2023/12/01 05:49:57;;;;;;;8.60;7.07;;;-9.00;99.90;;;;;;5060815;28;20469;-57
2023/12/01 05:52:24;;;;;;;7.60;6.90;;;-9.00;99.90;;;;;;5053935;28;20462;-55
2023/12/01 05:54:52;;;;;;;7.67;6.90;;;-9.00;99.90;;;;;;5053186;28;20473;-55
2023/12/01 05:57:19;;;;;;;9.53;7.50;;;-8.90;99.90;;;;;;5059932;28;20464;-55
2023/12/01 05:59:46;;;;;;;8.73;7.93;;;-8.90;99.90;;;;;;5058899;28;20577;-56
2023/12/01 06:02:12;;;;;;;8.20;7.40;;;-8.90;99.90;;;;;;5056141;28;20881;-55
2023/12/01 06:04:39;;;;;;;6.70;6.10;;;-9.00;99.90;;;;;;5048986;28;20514;-56
2023/12/01 06:07:07;;;;;;;7.60;6.67;;;-9.10;99.90;;;;;;5052634;28;20456;-55
2023/12/01 06:09:35;;;;;;;8.07;7.37;;;-9.10;99.90;;;;;;5050738;28;20540;-56
2023/12/01 06:12:02;;;;;;;8.23;7.10;;;-9.10;99.90;;;;;;5064634;28;20510;-55
2023/12/01 06:14:28;;;;;;;8.33;7.53;;;-9.10;99.90;;;;;;5056980;28;20489;-56
2023/12/01 06:16:54;;;;;;;9.50;8.03;;;-9.10;98.00;;;;;;5063784;28;20965;-57
2023/12/01 06:19:21;;;;;;;7.87;7.17;;;-9.10;77.90;;;;;;5051440;28;20220;-55
2023/12/01 06:21:48;;;;;;;8.17;7.47;;;-9.10;99.90;;;;;;5049278;28;20466;-55
2023/12/01 06:24:15;;;;;;;8.93;8.03;;;-9.10;99.90;;;;;;5060875;28;21172;-56
2023/12/01 06:26:42;;;;;;;9.20;8.30;;;-9.10;99.90;;;;;;5057358;28;20830;-55
2023/12/01 06:29:08;;;;;;;8.97;8.17;;;-9.10;99.90;;;;;;5060845;28;20542;-55
2023/12/01 06:31:35;;;;;;;9.37;8.50;;;-9.10;99.90;;;;;;5056384;28;20511;-55
2023/12/01 06:34:02;;;;;;;10.40;9.30;;;-9.10;99.90;;;;;;5051719;28;20477;-55
2023/12/01 06:36:29;;;;;;;16.67;9.43;;;-9.00;99.90;;;;;;5057269;28;21012;-56
2023/12/01 06:38:55;;;;;;;10.07;8.87;;;-9.00;99.90;;;;;;5044513;28;20472;-55
2023/12/01 06:41:23;;;;;;;13.50;10.43;;;-9.00;99.90;;;;;;5053466;28;20448;-57
2023/12/01 06:43:50;;;;;;;15.47;11.90;;;-9.00;99.90;;;;;;5052511;28;20452;-55
2023/12/01 06:46:16;;;;;;;16.73;13.10;;;-9.00;99.90;;;;;;5058430;28;20518;-56
2023/12/01 06:48:43;;;;;;;15.70;12.50;;;-8.90;99.90;;;;;;5056416;28;21548;-56
2023/12/01 06:51:10;;;;;;;17.40;13.10;;;-8.90;99.90;;;;;;5057478;28;20489;-55
2023/12/01 06:53:36;;;;;;;20.90;15.37;;;-8.80;99.90;;;;;;5050016;28;20490;-56
2023/12/01 06:56:03;;;;;;;18.40;14.20;;;-8.80;99.90;;;;;;5047101;28;20543;-56
2023/12/01 06:58:32;;;;;;;16.30;12.83;;;-8.70;99.90;;;;;;5058361;28;20476;-55
2023/12/01 07:01:00;;;;;;;15.53;12.83;;;-8.70;99.90;;;;;;5055244;28;20953;-55
2023/12/01 07:03:29;;;;;;;15.73;13.33;;;-8.80;99.90;;;;;;5053444;28;20482;-56
2023/12/01 07:05:56;;;;;;;14.00;12.37;;;-8.70;99.90;;;;;;5051603;28;20464;-56
2023/12/01 07:08:23;;;;;;;14.83;12.03;;;-8.70;99.90;;;;;;5055239;28;20486;-56
2023/12/01 07:10:51;;;;;;;14.47;12.00;;;-8.70;99.90;;;;;;5059835;28;20526;-56
2023/12/01 07:13:18;;;;;;;15.03;12.13;;;-8.60;99.90;;;;;;5058750;28;20471;-55
2023/12/01 07:15:47;;;;;;;16.00;13.03;;;-8.70;99.90;;;;;;5054336;28;20900;-56
2023/12/01 07:18:13;;;;;;;18.80;15.27;;;-8.60;99.90;;;;;;5054026;28;20489;-56
2023/12/01 07:20:40;;;;;;;18.88;14.75;;;-8.60;99.90;;;;;;5053745;28;20415;-56
2023/12/01 07:23:07;;;;;;;15.57;11.17;;;-8.50;99.90;;;;;;5058349;28;20203;-56
2023/12/01 07:25:34;;;;;;;13.97;11.00;;;-8.60;99.90;;;;;;5057051;28;20458;-55
2023/12/01 07:28:02;;;;;;;14.13;12.33;;;-8.60;99.90;;;;;;5055037;28;20851;-56
2023/12/01 07:30:29;;;;;;;16.80;12.40;;;-8.50;99.90;;;;;;5060403;28;20466;-55
2023/12/01 07:32:59;;;;;;;13.97;10.90;;;-8.40;99.90;;;;;;5061726;28;22157;-55
2023/12/01 07:35:26;;;;;;;11.30;10.10;;;-8.40;99.90;;;;;;5054423;28;20482;-55
2023/12/01 07:37:53;;;;;;;12.37;11.03;;;-8.40;99.90;;;;;;5059776;28;20490;-56
2023/12/01 07:40:21;;;;;;;11.57;10.37;;;-8.40;99.90;;;;;;5048952;28;21053;-56
2023/12/01 07:42:48;;;;;;;16.90;13.43;;;-8.30;99.90;;;;;;5062418;28;20445;-55
2023/12/01 07:45:17;;;;;;;14.70;11.47;;;-8.30;99.90;;;;;;5057003;28;20441;-55
2023/12/01 07:47:44;;;;;;;14.17;12.23;;;-8.30;99.90;;;;;;5054016;28;20470;-55
2023/12/01 07:50:14;;;;;;;12.30;10.87;;;-8.30;99.90;;;;;;5054626;28;20445;-55
2023/12/01 07:52:41;;;;;;;10.90;9.80;;;-8.20;99.90;;;;;;5052700;28;20492;-56
2023/12/01 07:55:09;;;;;;;13.80;12.20;;;-8.20;99.90;;;;;;5059038;28;20735;-56
2023/12/01 07:57:35;;;;;;;14.40;11.93;;;-8.20;99.90;;;;;;5061712;28;20465;-56
2023/12/01 08:00:03;;;;;;;14.73;12.23;;;-8.10;99.90;;;;;;5061903;28;20449;-56
2023/12/01 08:02:29;;;;;;;17.77;13.50;;;-8.00;99.90;;;;;;5047151;28;20933;-55
2023/12/01 08:04:56;;;;;;;14.60;12.20;;;-7.90;99.90;;;;;;5055516;28;20457;-55
2023/12/01 08:07:24;;;;;;;18.10;14.67;;;-8.00;99.90;;;;;;5065344;28;20513;-56
2023/12/01 08:09:51;;;;;;;21.03;16.07;;;-7.90;99.90;;;;;;5057137;28;20438;-55
2023/12/01 08:12:18;;;;;;;23.47;17.43;;;-7.80;99.90;;;;;;5052856;28;20458;-55
2023/12/01 08:14:45;;;;;;;22.70;17.00;;;-7.80;99.90;;;;;;5068007;28;20634;-56
2023/12/01 08:17:11;;;;;;;23.70;17.97;;;-7.60;99.90;;;;;;5067488;28;20499;-56
2023/12/01 08:19:38;;;;;;;28.27;20.17;;;-7.70;99.90;;;;;;5074838;28;20445;-56
2023/12/01 08:22:05;;;;;;;33.43;26.80;;;-7.80;99.90;;;;;;5052711;28;20458;-56
2023/12/01 08:24:33;;;;;;;36.87;21.07;;;-7.70;99.90;;;;;;5061242;28;20799;-55
2023/12/01 08:27:00;;;;;;;33.10;21.10;;;-7.60;99.90;;;;;;5061277;28;20480;-55
2023/12/01 08:29:27;;;;;;;50.87;37.50;;;-7.50;99.90;;;;;;5057918;28;21306;-56
2023/12/01 08:31:53;;;;;;;31.77;22.93;;;-7.60;99.90;;;;;;5059418;28;21032;-55
2023/12/01 08:34:20;;;;;;;29.47;20.60;;;-7.40;99.90;;;;;;5063520;28;20449;-55
2023/12/01 08:36:47;;;;;;;29.00;20.30;;;-7.70;99.90;;;;;;5053284;28;20512;-56
2023/12/01 08:39:13;;;;;;;29.10;19.57;;;-7.60;99.90;;;;;;5052178;28;20472;-56
2023/12/01 08:41:41;;;;;;;25.63;18.20;;;-7.40;99.90;;;;;;5056340;28;20442;-55
2023/12/01 08:44:08;;;;;;;27.73;19.40;;;-7.50;99.90;;;;;;5056313;28;20462;-55
2023/12/01 08:46:35;;;;;;;30.47;20.87;;;-7.40;99.90;;;;;;5064046;28;20941;-55
2023/12/01 08:49:02;;;;;;;21.43;15.53;;;-7.40;99.90;;;;;;5062784;28;20531;-55
2023/12/01 08:51:29;;;;;;;24.50;16.30;;;-7.40;99.90;;;;;;5056942;28;20458;-56
2023/12/01 08:53:55;;;;;;;23.17;15.63;;;-7.30;99.90;;;;;;5042612;28;20835;-56
2023/12/01 08:56:22;;;;;;;22.00;15.80;;;-7.30;99.90;;;;;;5057295;28;20477;-55
2023/12/01 08:58:51;;;;;;;18.87;14.80;;;-7.30;99.90;;;;;;5054389;28;20489;-56
2023/12/01 09:01:18;;;;;;;19.77;14.13;;;-7.10;99.90;;;;;;5055049;28;20464;-56
2023/12/01 09:03:44;;;;;;;16.83;13.57;;;-7.10;99.90;;;;;;5054787;28;20446;-55
2023/12/01 09:06:11;;;;;;;18.17;14.00;;;-6.90;99.90;;;;;;5055769;28;21095;-56
2023/12/01 09:08:38;;;;;;;18.40;13.73;;;-7.00;99.90;;;;;;5059230;28;20472;-55
2023/12/01 09:11:05;;;;;;;20.10;14.27;;;-7.00;99.90;;;;;;5053915;28;20454;-56
2023/12/01 09:13:32;;;;;;;20.00;15.30;;;-7.00;99.90;;;;;;5062971;28;20466;-56
2023/12/01 09:16:00;;;;;;;22.23;16.00;;;-6.80;99.90;;;;;;5058262;28;20493;-55
2023/12/01 09:18:26;;;;;;;23.13;16.80;;;-6.90;99.90;;;;;;5057135;28;20594;-55
2023/12/01 09:20:53;;;;;;;21.70;16.83;;;-6.90;99.90;;;;;;5054027;28;21767;-55
2023/12/01 09:23:20;;;;;;;21.33;16.20;;;-6.90;99.90;;;;;;5057830;28;20512;-55
2023/12/01 09:25:46;;;;;;;20.47;15.33;;;-6.80;99.90;;;;;;5054485;28;20460;-55
2023/12/01 09:28:14;;;;;;;22.07;17.40;;;-7.00;23.50;;;;;;5063550;28;20527;-55
2023/12/01 09:30:40;;;;;;;25.97;19.30;;;-6.80;99.90;;;;;;5057010;28;20960;-55
2023/12/01 09:33:08;;;;;;;22.10;16.23;;;-6.70;99.90;;;;;;5059852;28;20526;-54
2023/12/01 09:35:35;;;;;;;22.57;16.70;;;-6.40;25.70;;;;;;5054744;28;20535;-55
2023/12/01 09:38:01;;;;;;;22.10;17.33;;;-5.70;58.60;;;;;;5059373;28;20476;-56
2023/12/01 09:40:28;;;;;;;35.60;23.47;;;-5.50;79.80;;;;;;5062669;28;21013;-55
2023/12/01 09:42:56;;;;;;;30.70;20.30;;;-5.40;74.40;;;;;;5053741;28;20469;-55
2023/12/01 09:45:26;;;;;;;24.90;16.70;;;-5.40;85.50;;;;;;5060224;28;20463;-56
2023/12/01 09:47:59;;;;;;;23.47;17.00;;;-5.40;72.40;;;;;;5058360;28;21062;-55
2023/12/01 09:50:28;;;;;;;23.53;16.63;;;-5.70;71.20;;;;;;5062082;28;21226;-56
2023/12/01 09:52:55;;;;;;;26.40;18.20;;;-5.70;59.80;;;;;;5045732;28;20462;-55
2023/12/01 09:55:21;;;;;;;46.83;31.00;;;-5.20;76.40;;;;;;5055533;28;20872;-56
2023/12/01 09:57:49;;;;;;;30.40;19.80;;;-5.30;70.10;;;;;;5054213;28;20482;-56
2023/12/01 10:00:16;;;;;;;40.43;26.57;;;-5.10;57.80;;;;;;5060735;28;20484;-56
2023/12/01 10:02:43;;;;;;;30.87;21.47;;;-4.90;64.30;;;;;;5061329;28;20454;-56
2023/12/01 10:05:11;;;;;;;36.30;23.07;;;-5.40;74.30;;;;;;5052121;28;20453;-55
2023/12/01 10:07:39;;;;;;;19.93;15.13;;;-5.20;54.80;;;;;;5052458;28;20913;-56
2023/12/01 10:10:19;;;;;;;23.27;15.10;;;-4.90;64.10;;;;;;5061137;28;20461;-56
2023/12/01 10:12:54;;;;;;;22.40;16.73;;;-4.60;79.00;;;;;;5062844;28;20452;-55
2023/12/01 10:15:21;;;;;;;21.67;16.03;;;-4.70;84.50;;;;;;5055223;28;20522;-56
2023/12/01 10:17:47;;;;;;;25.50;17.73;;;-5.30;71.80;;;;;;5062267;28;20898;-55
2023/12/01 10:20:17;;;;;;;22.70;16.47;;;-5.20;51.30;;;;;;5062135;28;20461;-58
2023/12/01 10:22:45;;;;;;;21.97;16.63;;;-4.90;56.00;;;;;;5060769;28;20457;-55
2023/12/01 10:25:13;;;;;;;19.40;14.97;;;-5.20;55.00;;;;;;5056585;28;20539;-54
2023/12/01 10:27:40;;;;;;;22.90;15.57;;;-5.00;37.90;;;;;;5052357;28;20531;-55
2023/12/01 10:30:11;;;;;;;19.37;14.47;;;-4.90;41.80;;;;;;5064769;28;20518;-54
2023/12/01 10:32:38;;;;;;;18.80;15.10;;;-4.60;42.40;;;;;;5061632;28;20500;-55
2023/12/01 10:35:06;;;;;;;15.90;12.63;;;-4.70;56.60;;;;;;5056608;28;20540;-55
2023/12/01 10:37:33;;;;;;;17.83;14.10;;;-4.90;59.60;;;;;;5057247;28;20550;-56
2023/12/01 10:40:05;;;;;;;18.50;13.00;;;-4.90;51.50;;;;;;5062834;28;20962;-55
2023/12/01 10:42:33;;;;;;;16.10;12.63;;;-5.00;53.50;;;;;;5056574;28;20549;-55
2023/12/01 10:45:02;;;;;;;18.27;13.53;;;-4.80;45.20;;;;;;5055636;28;20461;-55
2023/12/01 10:47:29;;;;;;;17.20;12.50;;;-4.80;46.90;;;;;;5055342;28;20493;-56
2023/12/01 10:49:56;;;;;;;22.63;14.53;;;-4.80;46.50;;;;;;5056554;28;20497;-56
2023/12/01 10:52:24;;;;;;;15.43;13.20;;;-4.80;38.40;;;;;;5059675;28;21011;-56
2023/12/01 10:54:52;;;;;;;17.07;14.03;;;-4.60;32.90;;;;;;5053395;28;20462;-55
2023/12/01 10:57:31;;;;;;;18.70;14.90;;;-4.60;40.50;;;;;;5054135;28;20478;-55
2023/12/01 11:00:04;;;;;;;22.90;14.40;;;-4.50;42.60;;;;;;5053681;28;20460;-56
2023/12/01 11:02:31;;;;;;;15.63;12.10;;;-4.50;42.10;;;;;;5054704;28;20514;-56
2023/12/01 11:04:59;;;;;;;18.93;13.70;;;-4.60;40.80;;;;;;5053356;28;20456;-55
2023/12/01 11:07:42;;;;;;;16.67;13.80;;;-4.60;31.30;;;;;;5047593;28;20465;-56
2023/12/01 11:10:22;;;;;;;16.83;13.73;;;-4.70;51.30;;;;;;5055539;28;20461;-56
2023/12/01 11:13:05;;;;;;;20.87;12.77;;;-4.60;48.50;;;;;;5058161;28;20486;-55
2023/12/01 11:15:35;;;;;;;18.80;13.93;;;-4.80;64.20;;;;;;5061763;28;21010;-56
2023/12/01 11:18:01;;;;;;;16.87;13.47;;;-4.60;41.00;;;;;;5058753;28;20492;-56
2023/12/01 11:20:32;;;;;;;18.60;13.57;;;-4.70;45.80;;;;;;5057477;28;20542;-56
2023/12/01 11:23:06;;;;;;;20.37;14.97;;;-4.80;38.40;;;;;;5059017;28;20505;-56
2023/12/01 11:25:43;;;;;;;20.33;15.30;;;-4.90;42.60;;;;;;5058028;28;20539;-56
2023/12/01 11:28:22;;;;;;;24.00;15.07;;;-4.70;51.70;;;;;;5052897;28;20571;-56
2023/12/01 11:31:08;;;;;;;26.57;17.80;;;-4.70;44.70;;;;;;5047776;28;20548;-56
2023/12/01 11:33:39;;;;;;;24.80;17.67;;;-5.00;44.50;;;;;;5055166;28;20465;-56
2023/12/01 11:36:23;;;;;;;23.13;16.07;;;-4.90;32.90;;;;;;5056929;28;20481;-55
2023/12/01 11:39:17;;;;;;;21.70;15.40;;;-5.20;97.90;;;;;;5055212;28;20485;-55
2023/12/01 11:41:47;;;;;;;19.97;14.80;;;-5.30;90.80;;;;;;5058711;28;20445;-55
2023/12/01 11:44:18;;;;;;;21.13;15.73;;;-5.40;99.90;;;;;;5062703;28;20437;-55
2023/12/01 11:46:45;;;;;;;25.87;15.20;;;-5.40;99.90;;;;;;5059238;28;20494;-55
2023/12/01 11:49:13;;;;;;;20.60;15.90;;;-5.30;99.90;;;;;;5066647;28;20530;-54
2023/12/01 11:51:40;;;;;;;22.57;15.93;;;-5.40;99.90;;;;;;5055712;28;20446;-56
2023/12/01 11:54:06;;;;;;;23.30;16.70;;;-5.30;99.90;;;;;;5056121;28;21001;-56
2023/12/01 11:56:33;;;;;;;23.73;15.93;;;-5.30;99.90;;;;;;5055218;28;20516;-54
2023/12/01 11:59:00;;;;;;;19.80;15.63;;;-5.20;99.90;;;;;;5053819;28;20462;-55
2023/12/01 12:01:30;;;;;;;22.60;17.27;;;-5.10;99.90;;;;;;5058685;28;20503;-56
2023/12/01 12:03:57;;;;;;;30.27;18.43;;;-5.00;99.90;;;;;;5051650;28;20514;-55
2023/12/01 12:06:25;;;;;;;25.57;19.07;;;-5.00;99.90;;;;;;5066096;28;20508;-55
2023/12/01 12:08:53;;;;;;;22.47;16.10;;;-5.00;99.90;;;;;;5056909;28;20469;-55
2023/12/01 12:11:23;;;;;;;20.40;15.70;;;-4.90;99.90;;;;;;5063715;28;20457;-54
2023/12/01 12:13:54;;;;;;;21.00;15.53;;;-4.90;99.90;;;;;;5068041;28;20952;-57
2023/12/01 12:16:22;;;;;;;23.60;16.50;;;-4.80;99.90;;;;;;5061515;28;20482;-56
2023/12/01 12:18:50;;;;;;;23.33;17.10;;;-4.60;99.90;;;;;;5058917;28;20473;-55
2023/12/01 12:21:17;;;;;;;28.87;16.83;;;-4.80;99.90;;;;;;5060227;28;20529;-55
2023/12/01 12:23:44;;;;;;;24.63;17.20;;;-4.80;99.90;;;;;;5067436;28;20441;-56
2023/12/01 12:26:14;;;;;;;20.47;15.47;;;-4.70;99.90;;;;;;5060573;28;20442;-56
2023/12/01 12:28:42;;;;;;;18.33;14.13;;;-4.90;99.90;;;;;;5054287;28;20958;-55
2023/12/01 12:31:10;;;;;;;20.07;14.83;;;-4.80;99.90;;;;;;5059190;28;20480;-55
2023/12/01 12:33:37;;;;;;;19.83;15.00;;;-4.70;99.90;;;;;;5058792;28;20441;-56
2023/12/01 12:36:06;;;;;;;19.47;15.57;;;-4.70;99.90;;;;;;5059953;28;20536;-55
2023/12/01 12:38:33;;;;;;;21.73;16.10;;;-4.80;99.90;;;;;;5058865;28;20858;-55